Time;durP1;ratioP1;P1;durP2;ratioP2;P2;SDS_P1;SDS_P2;PMS_P1;PMS_P2;Temp;Humidity;BMP_temperature;BMP_pressure;BME280_temperature;BME280_humidity;BME280_pressure;Samples;Min_cycle;Max_cycle;Signal;HPM_P1;HPM_P2
2021/03/11 00:04:44;;;;;;;30.65;19.88;;;;;;;0.72;68.36;97639.06;10018083;29;20053;-79
2021/03/11 00:10:06;;;;;;;30.83;19.58;;;;;;;0.72;68.13;97643.81;10012278;29;20053;-79
2021/03/11 00:15:26;;;;;;;31.35;19.77;;;;;;;0.72;68.66;97633.56;10012891;29;20053;-79
2021/03/11 00:20:46;;;;;;;27.17;18.73;;;;;;;0.72;67.38;97641.81;10037780;29;20050;-79
2021/03/11 00:26:06;;;;;;;29.23;18.73;;;;;;;0.75;68.31;97623.50;10012187;29;20057;-79
2021/03/11 00:31:26;;;;;;;30.63;19.90;;;;;;;0.73;67.77;97613.06;10012222;29;20049;-79
2021/03/11 00:36:46;;;;;;;28.13;19.33;;;;;;;0.68;67.72;97611.19;10011673;29;20497;-79
2021/03/11 00:42:06;;;;;;;30.08;19.63;;;;;;;0.68;68.83;97605.69;10011724;29;20109;-79
2021/03/11 00:47:25;;;;;;;31.58;19.95;;;;;;;0.68;68.71;97602.19;10036437;29;20122;-79
2021/03/11 00:52:47;;;;;;;30.80;20.00;;;;;;;0.68;68.98;97597.44;10023914;29;20060;-79
2021/03/11 00:58:08;;;;;;;29.15;19.33;;;;;;;0.64;68.66;97593.53;10023762;29;20049;-79
2021/03/11 01:03:31;;;;;;;31.40;19.90;;;;;;;0.59;69.13;97595.13;10011300;29;20049;-79
2021/03/11 01:08:53;;;;;;;28.17;19.25;;;;;;;0.57;69.08;97584.66;10024137;29;20099;-79
2021/03/11 01:14:13;;;;;;;29.55;20.13;;;;;;;0.64;69.45;97577.78;10010474;29;20086;-79
2021/03/11 01:19:32;;;;;;;30.75;19.45;;;;;;;0.67;69.05;97575.97;10022546;29;20052;-79
2021/03/11 01:24:52;;;;;;;29.40;19.60;;;;;;;0.68;69.38;97561.72;10035155;29;20045;-79
2021/03/11 01:30:13;;;;;;;29.48;19.75;;;;;;;0.69;70.07;97554.22;10035073;29;20057;-79
2021/03/11 01:35:32;;;;;;;28.65;19.98;;;;;;;0.70;70.17;97537.19;10034980;29;20050;-79
2021/03/11 01:40:55;;;;;;;32.70;21.30;;;;;;;0.74;70.13;97537.59;10022021;29;20050;-78
2021/03/11 01:46:15;;;;;;;29.92;19.80;;;;;;;0.78;70.29;97529.78;10009416;29;20049;-78
2021/03/11 01:51:34;;;;;;;32.08;20.17;;;;;;;0.83;70.01;97511.69;10021684;29;20054;-78
2021/03/11 01:56:54;;;;;;;29.27;19.30;;;;;;;0.92;70.20;97485.75;10021376;29;20074;-78
2021/03/11 02:02:16;;;;;;;28.85;19.15;;;;;;;0.96;70.11;97472.41;10008162;29;20045;-78
2021/03/11 02:07:36;;;;;;;27.70;18.38;;;;;;;1.00;70.02;97456.31;10021298;29;20124;-79
2021/03/11 02:13:39;;;;;;;28.00;18.42;;;;;;;1.03;70.17;97436.72;10008635;29;20062;-78
2021/03/11 02:19:21;;;;;;;27.25;19.27;;;;;;;1.04;70.11;97429.22;10033477;29;20421;-79
2021/03/11 02:25:06;;;;;;;25.73;18.17;;;;;;;1.03;69.85;97414.75;10048250;29;20387;-79
2021/03/11 02:30:26;;;;;;;27.35;18.77;;;;;;;1.07;69.99;97423.41;10008768;29;20502;-78
2021/03/11 02:35:46;;;;;;;29.33;18.75;;;;;;;1.08;70.03;97407.66;10007564;29;20058;-78
2021/03/11 02:41:06;;;;;;;29.15;19.45;;;;;;;1.00;70.36;97404.09;10020145;29;20417;-78
2021/03/11 02:46:25;;;;;;;28.15;18.75;;;;;;;1.01;70.04;97398.06;10019897;29;20107;-78
2021/03/11 02:51:47;;;;;;;28.73;19.00;;;;;;;1.02;70.04;97387.81;10020003;29;20066;-78
2021/03/11 02:57:06;;;;;;;28.75;19.15;;;;;;;1.07;70.05;97381.44;10020011;29;20517;-78
2021/03/11 03:02:26;;;;;;;29.48;18.80;;;;;;;1.06;69.75;97379.94;10006946;29;20056;-79
2021/03/11 03:07:47;;;;;;;30.55;19.17;;;;;;;1.11;70.11;97379.06;10006865;29;20061;-78
2021/03/11 03:13:15;;;;;;;27.88;18.05;;;;;;;1.18;69.85;97361.16;10006887;29;20060;-78
2021/03/11 03:18:35;;;;;;;28.10;19.05;;;;;;;1.20;70.05;97350.34;10007209;29;20056;-78
2021/03/11 03:23:54;;;;;;;26.40;18.27;;;;;;;1.13;70.49;97347.00;10007082;29;20053;-79
2021/03/11 03:29:14;;;;;;;27.13;18.45;;;;;;;1.21;70.14;97333.31;10019377;29;20072;-79
2021/03/11 03:34:34;;;;;;;26.52;17.45;;;;;;;1.26;70.26;97337.94;10006544;29;20045;-78
2021/03/11 03:39:54;;;;;;;26.63;19.08;;;;;;;1.30;69.81;97324.56;10006978;29;20057;-78
2021/03/11 03:45:21;;;;;;;25.80;18.42;;;;;;;1.32;69.99;97318.50;10039050;29;20481;-78
2021/03/11 03:50:47;;;;;;;23.42;17.15;;;;;;;1.36;69.83;97307.91;10039753;29;20045;-78
2021/03/11 03:56:35;;;;;;;27.88;18.52;;;;;;;1.39;69.81;97291.06;10014275;29;20072;-78
2021/03/11 04:01:59;;;;;;;25.88;17.90;;;;;;;1.38;70.13;97273.09;10014358;29;20049;-78
2021/03/11 04:07:24;;;;;;;27.08;18.65;;;;;;;1.41;70.02;97280.25;10038036;29;20053;-79
2021/03/11 04:12:43;;;;;;;26.43;17.87;;;;;;;1.44;69.64;97281.91;10025540;29;20056;-78
2021/03/11 04:18:04;;;;;;;28.35;18.88;;;;;;;1.47;69.60;97271.09;10012804;29;20056;-78
2021/03/11 04:23:24;;;;;;;31.08;18.60;;;;;;;1.51;69.78;97260.47;10024701;29;20049;-78
2021/03/11 04:28:44;;;;;;;25.60;17.60;;;;;;;1.57;69.27;97239.03;10025029;29;20062;-78
2021/03/11 04:34:04;;;;;;;26.58;18.40;;;;;;;1.64;68.97;97249.31;10011778;29;20585;-79
2021/03/11 04:39:24;;;;;;;28.85;19.35;;;;;;;1.64;69.27;97238.31;10024374;29;20058;-79
2021/03/11 04:44:44;;;;;;;27.73;19.20;;;;;;;1.68;69.21;97235.94;10050457;29;20549;-79
2021/03/11 04:50:07;;;;;;;27.90;18.05;;;;;;;1.68;69.33;97224.94;10012245;29;20049;-79
2021/03/11 04:55:27;;;;;;;28.15;19.67;;;;;;;1.64;69.11;97228.06;10025103;29;20118;-79
2021/03/11 05:00:49;;;;;;;26.95;18.15;;;;;;;1.65;69.31;97215.78;10011943;29;20056;-79
2021/03/11 05:06:10;;;;;;;26.50;18.27;;;;;;;1.72;68.89;97230.81;10024080;29;20408;-80
2021/03/11 05:11:30;;;;;;;26.20;17.83;;;;;;;1.76;69.09;97220.19;10024787;29;20053;-79
2021/03/11 05:16:50;;;;;;;29.20;18.25;;;;;;;1.79;69.03;97216.34;10011363;29;20046;-79
2021/03/11 05:22:10;;;;;;;25.38;17.92;;;;;;;1.77;69.03;97198.91;10021470;29;20435;-78
2021/03/11 05:27:29;;;;;;;27.08;18.92;;;;;;;1.75;69.28;97188.47;10010871;29;20629;-80
2021/03/11 05:32:49;;;;;;;30.02;20.63;;;;;;;1.80;69.54;97178.53;10036000;29;20390;-80
2021/03/11 05:38:09;;;;;;;29.17;19.38;;;;;;;1.85;69.32;97175.63;10049718;29;20053;-80
2021/03/11 05:43:29;;;;;;;28.25;19.38;;;;;;;1.94;69.08;97169.56;10016938;29;20451;-80
2021/03/11 05:48:50;;;;;;;26.42;18.83;;;;;;;1.98;69.04;97155.44;10038532;29;20038;-80
2021/03/11 05:54:09;;;;;;;26.85;18.75;;;;;;;2.09;69.29;97144.03;10014086;29;20050;-80
2021/03/11 05:59:30;;;;;;;27.40;18.50;;;;;;;2.10;69.10;97122.75;10027277;29;20074;-79
2021/03/11 06:04:53;;;;;;;27.50;19.10;;;;;;;2.12;69.21;97084.38;10032617;29;20045;-80
2021/03/11 06:10:14;;;;;;;26.50;18.83;;;;;;;2.13;69.34;97064.56;10035775;29;20114;-79
2021/03/11 06:15:38;;;;;;;28.58;19.55;;;;;;;2.12;69.67;97065.09;10005502;29;20053;-80
2021/03/11 06:21:00;;;;;;;27.98;19.80;;;;;;;2.04;70.01;97045.13;10036530;29;20122;-79
2021/03/11 06:26:20;;;;;;;29.33;19.67;;;;;;;1.98;70.01;97037.06;10011520;29;20041;-80
2021/03/11 06:31:40;;;;;;;28.05;19.08;;;;;;;2.04;70.01;97042.38;10004077;29;20046;-80
2021/03/11 06:37:00;;;;;;;29.70;19.92;;;;;;;2.09;69.88;97031.16;9993426;29;20057;-80
2021/03/11 06:42:24;;;;;;;27.40;19.50;;;;;;;2.21;69.83;97028.72;10018822;29;20042;-79
2021/03/11 06:47:44;;;;;;;29.10;19.45;;;;;;;2.28;69.63;97011.47;10014292;29;20098;-79
2021/03/11 06:53:04;;;;;;;29.75;20.35;;;;;;;2.50;69.12;97012.66;10021920;29;20497;-79
2021/03/11 06:58:25;;;;;;;29.58;20.00;;;;;;;2.63;68.80;97006.19;10001877;29;20041;-79
2021/03/11 07:03:46;;;;;;;28.35;18.30;;;;;;;2.76;68.24;97003.16;10010544;29;20046;-79
2021/03/11 07:09:07;;;;;;;24.35;17.75;;;;;;;2.84;67.74;97001.81;10009508;29;20042;-78
2021/03/11 07:14:29;;;;;;;26.38;18.58;;;;;;;2.91;67.28;97000.31;10027683;29;20482;-78
2021/03/11 07:20:09;;;;;;;27.45;19.08;;;;;;;3.00;67.20;97010.00;9996762;29;20056;-79
2021/03/11 07:25:39;;;;;;;27.13;18.50;;;;;;;3.11;67.61;96981.97;9989674;29;20119;-79
2021/03/11 07:31:00;;;;;;;24.67;17.40;;;;;;;3.17;66.92;96996.25;10027552;29;20066;-79
2021/03/11 07:36:20;;;;;;;25.58;16.70;;;;;;;3.32;66.74;96985.13;9989723;29;20102;-79
2021/03/11 07:41:39;;;;;;;23.25;17.05;;;;;;;3.39;66.76;96956.03;9978275;29;20498;-81
2021/03/11 07:47:00;;;;;;;26.73;17.58;;;;;;;3.42;66.22;96952.84;10095128;24;20061;-85
2021/03/11 07:52:22;;;;;;;24.20;16.88;;;;;;;3.54;66.05;96960.66;10011584;29;20054;-80
2021/03/11 07:57:47;;;;;;;24.63;17.77;;;;;;;3.61;65.84;96954.34;10318157;23;20064;-84
2021/03/11 08:03:24;;;;;;;24.70;17.17;;;;;;;3.72;65.51;96929.75;10070373;29;20057;-85
2021/03/11 08:08:46;;;;;;;23.58;17.30;;;;;;;3.81;64.81;96911.78;10107195;24;20148;-85
2021/03/11 08:14:25;;;;;;;25.73;17.10;;;;;;;3.87;65.19;96915.06;10143880;23;20061;-84
2021/03/11 08:19:44;;;;;;;26.17;17.00;;;;;;;3.92;64.80;96896.75;10024523;29;20514;-79
2021/03/11 08:25:05;;;;;;;24.90;17.23;;;;;;;4.12;64.28;96911.44;10056907;29;20054;-81
2021/03/11 08:30:37;;;;;;;24.23;16.77;;;;;;;4.28;64.13;96899.63;10267913;23;20065;-85
2021/03/11 08:36:00;;;;;;;23.15;16.30;;;;;;;4.29;63.72;96895.56;10173011;23;20049;-87
2021/03/11 08:41:28;;;;;;;21.80;15.85;;;;;;;4.31;63.81;96895.72;10058440;29;20117;-81
2021/03/11 08:46:51;;;;;;;20.48;15.43;;;;;;;4.38;63.32;96890.66;10222021;24;20045;-85
2021/03/11 08:52:41;;;;;;;23.15;16.50;;;;;;;4.57;62.31;96879.69;10372309;23;20061;-86
2021/03/11 08:58:01;;;;;;;21.05;15.30;;;;;;;4.68;62.49;96870.13;10078762;29;20061;-85
2021/03/11 09:03:44;;;;;;;21.60;15.25;;;;;;;4.66;61.95;96867.97;10031764;29;20114;-86
2021/03/11 09:09:05;;;;;;;22.15;15.73;;;;;;;4.68;62.20;96854.28;10030612;29;20074;-87
2021/03/11 09:14:25;;;;;;;24.05;14.15;;;;;;;4.88;62.46;96844.75;10152147;23;20131;-86
2021/03/11 09:26:25;;;;;;;19.88;13.07;;;;;;;5.20;60.96;96831.84;11172577;23;20151;-80
2021/03/11 09:31:47;;;;;;;19.30;13.55;;;;;;;5.56;60.66;96835.78;10014940;29;20046;-79
2021/03/11 09:37:06;;;;;;;20.45;13.05;;;;;;;5.75;60.07;96860.72;10010493;29;20057;-79
2021/03/11 09:42:26;;;;;;;22.40;12.75;;;;;;;5.79;60.24;96838.84;10010304;29;20402;-78
2021/03/11 09:47:46;;;;;;;24.02;13.13;;;;;;;6.13;60.92;96828.75;10022868;29;20502;-78
2021/03/11 09:53:06;;;;;;;19.60;12.60;;;;;;;6.37;58.39;96819.38;10022232;29;20109;-79
2021/03/11 09:58:25;;;;;;;20.60;14.00;;;;;;;6.49;58.41;96802.81;10022756;29;20053;-79
2021/03/11 10:03:46;;;;;;;19.20;13.80;;;;;;;6.77;57.03;96809.56;10022277;29;20068;-79
2021/03/11 10:09:09;;;;;;;20.90;13.95;;;;;;;6.58;57.36;96805.56;10037619;29;20053;-78
2021/03/11 10:14:29;;;;;;;19.50;13.95;;;;;;;6.41;57.14;96766.97;10040154;29;20045;-79
2021/03/11 10:19:49;;;;;;;22.25;14.93;;;;;;;6.52;58.06;96718.47;10043302;29;20056;-80
2021/03/11 10:25:16;;;;;;;20.13;14.02;;;;;;;7.40;56.68;96716.50;10038188;29;20065;-76
2021/03/11 10:30:37;;;;;;;17.90;13.65;;;;;;;8.05;55.91;96737.19;10023700;29;20054;-78
2021/03/11 10:36:18;;;;;;;17.92;12.85;;;;;;;7.94;54.62;96735.13;10021489;29;20054;-78
2021/03/11 10:42:01;;;;;;;17.10;12.45;;;;;;;7.53;55.42;96740.94;10008984;29;20045;-76
2021/03/11 10:47:21;;;;;;;17.95;12.13;;;;;;;7.42;56.20;96725.66;10019613;29;20065;-77
2021/03/11 10:52:48;;;;;;;17.20;12.35;;;;;;;7.44;56.57;96716.75;10020585;29;20042;-77
2021/03/11 10:58:26;;;;;;;15.93;11.73;;;;;;;7.49;56.56;96712.91;10037395;29;20034;-87
2021/03/11 11:15:50;;;;;;;13.82;9.88;;;;;;;8.01;56.25;96711.94;10069210;23;20493;-77
2021/03/11 11:21:10;;;;;;;13.90;9.52;;;;;;;7.91;56.57;96722.41;9970666;29;20085;-75
2021/03/11 11:26:29;;;;;;;15.50;8.93;;;;;;;7.90;56.51;96709.84;9994146;29;20054;-77
2021/03/11 11:31:49;;;;;;;13.02;9.38;;;;;;;7.95;56.36;96678.94;9982519;29;20483;-77
2021/03/11 11:37:09;;;;;;;11.63;8.73;;;;;;;8.35;56.04;96682.69;9969611;29;20475;-79
2021/03/11 11:42:29;;;;;;;12.40;9.25;;;;;;;8.59;55.78;96680.63;9982042;29;20443;-77
2021/03/11 11:47:48;;;;;;;12.10;8.65;;;;;;;8.53;55.69;96683.03;9981899;29;20062;-77
2021/03/11 11:53:10;;;;;;;15.27;9.40;;;;;;;8.40;56.10;96658.66;9969566;29;20049;-76
2021/03/11 11:58:30;;;;;;;11.30;8.25;;;;;;;8.25;55.70;96666.13;10020231;29;20117;-76
2021/03/11 12:03:50;;;;;;;12.65;8.90;;;;;;;8.16;56.22;96663.47;9974402;29;20045;-78
2021/03/11 12:09:10;;;;;;;13.20;7.97;;;;;;;8.03;56.17;96648.13;10001170;29;20046;-77
2021/03/11 12:34:24;;;;;;;12.77;7.55;;;;;;;8.66;55.92;96589.88;10516708;23;20049;-79
2021/03/11 12:39:44;;;;;;;10.82;7.50;;;;;;;8.69;55.80;96591.47;10008174;29;20073;-76
2021/03/11 12:52:22;;;;;;;9.73;7.20;;;;;;;9.05;55.50;96603.88;11915543;23;20807;31
2021/03/11 12:57:43;;;;;;;9.70;6.65;;;;;;;9.12;55.56;96577.81;11904995;23;20029;-81
2021/03/11 13:09:33;;;;;;;9.43;6.15;;;;;;;9.05;56.37;96554.50;11385907;23;20100;-78
2021/03/11 13:14:53;;;;;;;8.70;5.90;;;;;;;8.87;56.65;96561.84;10000363;29;20520;-74
2021/03/11 13:20:14;;;;;;;8.07;5.28;;;;;;;8.68;56.91;96559.38;10002249;29;20093;-76
2021/03/11 13:25:34;;;;;;;9.48;5.60;;;;;;;8.71;57.09;96564.47;10025379;29;20053;-76
2021/03/11 13:30:54;;;;;;;8.82;5.85;;;;;;;8.74;57.31;96559.72;10032278;29;20045;-75
2021/03/11 13:36:13;;;;;;;9.68;5.25;;;;;;;8.76;57.84;96535.53;10009553;29;20074;-77
2021/03/11 13:41:35;;;;;;;8.65;5.07;;;;;;;8.89;57.82;96534.16;10018339;29;20414;-76
2021/03/11 13:46:54;;;;;;;8.95;5.38;;;;;;;9.00;57.87;96513.16;10024430;29;20058;-76
2021/03/11 13:52:14;;;;;;;10.10;4.60;;;;;;;9.17;58.01;96502.28;10005874;29;20057;-74
2021/03/11 13:57:34;;;;;;;7.68;4.30;;;;;;;9.24;57.79;96489.38;10017218;29;20045;-75
2021/03/11 14:02:54;;;;;;;5.65;3.95;;;;;;;9.55;58.35;96500.03;10034081;29;20053;-75
2021/03/11 14:08:14;;;;;;;5.72;3.92;;;;;;;9.67;58.10;96483.22;9987211;29;20058;-76
2021/03/11 14:13:34;;;;;;;6.60;3.78;;;;;;;9.80;58.19;96474.13;9957942;29;20046;-75
2021/03/11 14:18:54;;;;;;;7.28;3.88;;;;;;;9.98;58.14;96463.88;9996018;29;20109;-75
2021/03/11 14:24:14;;;;;;;5.55;3.58;;;;;;;10.30;57.56;96441.72;9952794;29;20051;-76
2021/03/11 14:29:34;;;;;;;5.90;3.95;;;;;;;10.43;57.12;96449.31;9962139;29;20074;-77
2021/03/11 14:34:54;;;;;;;5.90;4.03;;;;;;;10.35;57.55;96428.69;9960819;29;20054;-76
2021/03/11 14:40:14;;;;;;;7.90;5.13;;;;;;;10.34;57.57;96441.91;9997467;29;20072;-80
2021/03/11 14:45:42;;;;;;;7.85;3.95;;;;;;;10.56;57.40;96425.50;10247538;24;20807;31
2021/03/11 14:57:36;;;;;;;5.00;2.92;;;;;;;11.61;56.23;96407.09;10770820;23;20041;-81
2021/03/11 15:02:56;;;;;;;6.05;3.55;;;;;;;11.84;55.56;96383.59;12045135;24;20025;-81
2021/03/11 15:14:54;;;;;;;6.82;3.25;;;;;;;11.57;56.31;96390.13;12059373;24;21050;31
2021/03/11 15:20:24;;;;;;;;;;;;;;;;;;;;;
2021/03/11 16:51:04;;;;;;;3.90;2.65;;;;;;;10.76;60.33;96258.25;10195327;23;20071;-79
2021/03/11 16:56:23;;;;;;;5.18;2.63;;;;;;;10.65;60.29;96265.47;10033580;29;20050;-78
2021/03/11 17:01:43;;;;;;;6.25;2.40;;;;;;;10.67;60.48;96239.72;10039516;29;20508;-75
2021/03/11 17:07:03;;;;;;;7.28;2.88;;;;;;;10.66;60.85;96227.84;10035689;29;20061;-74
2021/03/11 17:12:23;;;;;;;3.92;2.70;;;;;;;10.66;61.03;96227.13;9999544;29;20178;-74
2021/03/11 17:17:45;;;;;;;3.33;2.20;;;;;;;10.57;61.48;96237.94;10012652;29;20046;-81
2021/03/11 17:23:05;;;;;;;4.70;2.50;;;;;;;10.47;61.25;96229.13;9993292;29;20053;-74
2021/03/11 17:28:25;;;;;;;5.95;2.17;;;;;;;10.43;61.77;96234.53;10006829;29;20123;-76
2021/03/11 17:33:45;;;;;;;3.80;2.17;;;;;;;10.41;62.71;96228.13;9971464;29;20061;-75
2021/03/11 17:39:06;;;;;;;3.45;2.58;;;;;;;10.27;63.02;96223.38;9983849;29;20050;-76
2021/03/11 17:44:27;;;;;;;6.57;2.63;;;;;;;10.10;63.70;96265.06;9996916;29;20068;-75
2021/03/11 17:49:47;;;;;;;3.75;2.50;;;;;;;9.98;64.19;96243.66;9996719;29;20517;-75
2021/03/11 17:55:07;;;;;;;5.80;2.85;;;;;;;9.84;64.48;96229.06;9996572;29;20046;-77
2021/03/11 18:00:27;;;;;;;5.25;2.38;;;;;;;9.79;64.97;96235.81;9986586;29;20113;-79
2021/03/11 18:05:47;;;;;;;3.17;2.10;;;;;;;9.78;64.55;96220.44;9971838;29;20050;-79
2021/03/11 18:11:26;;;;;;;3.20;2.20;;;;;;;9.86;64.96;96214.53;9971506;29;20050;-79
2021/03/11 18:17:14;;;;;;;3.65;1.95;;;;;;;9.86;64.81;96209.66;9984888;29;20054;-79
2021/03/11 18:22:34;;;;;;;4.28;2.20;;;;;;;9.91;65.55;96191.75;9983537;29;20383;-79
2021/03/11 18:27:55;;;;;;;3.65;2.20;;;;;;;9.92;65.01;96218.28;9982682;29;20046;-79
2021/03/11 18:33:14;;;;;;;3.35;1.95;;;;;;;9.95;65.22;96217.06;9994453;29;20045;-77
2021/03/11 18:38:34;;;;;;;3.75;1.67;;;;;;;10.01;65.06;96228.47;10008268;29;20041;-79
2021/03/11 18:43:54;;;;;;;1.90;1.13;;;;;;;10.02;65.54;96243.84;10007886;29;20045;-80
2021/03/11 18:49:14;;;;;;;1.30;0.90;;;;;;;9.96;65.26;96240.78;10010647;29;20057;-79
2021/03/11 18:54:34;;;;;;;2.17;1.05;;;;;;;9.89;65.10;96227.91;10007637;29;20387;-78
2021/03/11 18:59:54;;;;;;;1.88;1.10;;;;;;;9.86;65.67;96208.94;10019631;29;20059;-79
2021/03/11 19:05:14;;;;;;;2.03;1.00;;;;;;;9.86;65.55;96226.38;10006877;29;20053;-78
2021/03/11 19:10:34;;;;;;;3.33;1.10;;;;;;;9.84;65.33;96240.22;10023376;29;20101;-79
2021/03/11 19:15:54;;;;;;;2.42;0.80;;;;;;;9.79;65.33;96249.03;10027467;29;20060;-78
2021/03/11 19:21:14;;;;;;;3.92;1.10;;;;;;;9.73;65.88;96246.66;10014411;29;20474;-79
2021/03/11 19:26:34;;;;;;;2.47;1.02;;;;;;;9.68;66.07;96256.19;10014772;29;20077;-78
2021/03/11 19:31:54;;;;;;;2.00;0.98;;;;;;;9.66;65.90;96261.69;10014289;29;20409;-79
2021/03/11 19:37:14;;;;;;;1.50;0.80;;;;;;;9.58;65.81;96262.00;10014135;29;20045;-78
2021/03/11 19:42:34;;;;;;;1.42;0.85;;;;;;;9.49;66.70;96274.09;10026194;29;20041;-79
2021/03/11 19:47:53;;;;;;;1.67;0.70;;;;;;;9.46;66.97;96269.78;10013659;29;20066;-79
2021/03/11 19:53:13;;;;;;;4.35;1.50;;;;;;;9.45;67.04;96285.03;10013129;29;20037;-79
2021/03/11 19:58:33;;;;;;;3.53;1.15;;;;;;;9.57;66.87;96305.13;10030667;29;20045;-81
2021/03/11 20:03:53;;;;;;;4.15;2.10;;;;;;;9.67;66.59;96322.34;10015354;29;20042;-79
2021/03/11 20:09:13;;;;;;;3.08;2.17;;;;;;;9.72;66.38;96317.66;10012637;29;20114;-79
2021/03/11 20:14:33;;;;;;;5.72;3.08;;;;;;;9.61;66.87;96324.81;10041486;29;20045;-82
2021/03/11 20:19:53;;;;;;;6.63;3.30;;;;;;;9.39;67.73;96346.75;10034949;29;20061;-79
2021/03/11 20:25:12;;;;;;;4.03;3.03;;;;;;;9.11;68.41;96353.69;10030720;29;20053;-81
2021/03/11 20:37:06;;;;;;;4.13;1.38;;;;;;;8.71;69.43;96321.72;11120996;23;20113;-81
2021/03/11 20:42:27;;;;;;;2.13;1.15;;;;;;;8.47;70.49;96301.69;10055394;29;20101;-81
2021/03/11 20:47:51;;;;;;;1.17;0.70;;;;;;;8.13;70.34;96295.03;10263524;23;20050;-81
2021/03/11 20:59:43;;;;;;;1.38;0.40;;;;;;;7.74;70.96;96304.75;11710913;23;20080;-84
2021/03/11 21:11:37;;;;;;;1.48;0.40;;;;;;;7.27;71.85;96309.03;10035972;23;20482;-78
2021/03/11 21:16:57;;;;;;;1.52;0.38;;;;;;;7.07;72.19;96333.56;9973385;29;20494;-79
2021/03/11 21:22:19;;;;;;;1.20;0.50;;;;;;;6.95;73.01;96341.16;9972875;29;20050;-76
2021/03/11 21:27:39;;;;;;;1.02;0.40;;;;;;;6.88;73.20;96332.50;9972351;29;20050;-76
2021/03/11 21:33:00;;;;;;;2.08;0.50;;;;;;;6.86;72.72;96345.53;9971831;29;20057;-75
2021/03/11 21:38:21;;;;;;;4.80;0.80;;;;;;;6.85;73.26;96363.47;9995658;29;20486;-75
2021/03/11 21:43:41;;;;;;;1.00;0.50;;;;;;;6.86;73.64;96356.63;9971795;29;20052;-76
2021/03/11 21:49:01;;;;;;;2.10;0.30;;;;;;;6.89;72.71;96360.97;10009563;29;20046;-75
2021/03/11 21:54:20;;;;;;;1.30;0.40;;;;;;;6.99;72.65;96371.94;9971321;29;20076;-76
2021/03/11 21:59:40;;;;;;;2.25;0.50;;;;;;;7.09;72.87;96378.81;10008770;29;20402;-76
2021/03/11 22:05:00;;;;;;;1.67;0.50;;;;;;;7.17;72.06;96373.72;9970827;29;20149;-76
2021/03/11 22:10:26;;;;;;;1.98;0.60;;;;;;;7.28;71.85;96363.94;9995817;29;20135;-75
2021/03/11 22:15:46;;;;;;;3.03;0.65;;;;;;;7.39;71.12;96381.91;9995224;29;20086;-75
2021/03/11 22:21:06;;;;;;;2.15;0.40;;;;;;;7.50;70.71;96386.69;9995298;29;20050;-75
2021/03/11 22:26:26;;;;;;;1.77;0.40;;;;;;;7.60;70.50;96406.72;10008087;29;20045;-75
2021/03/11 22:31:46;;;;;;;4.93;0.70;;;;;;;7.69;70.08;96391.97;10008004;29;20079;-75
2021/03/11 22:37:06;;;;;;;3.15;0.60;;;;;;;7.77;69.60;96413.19;9994804;29;20050;-75
2021/03/11 22:42:27;;;;;;;1.77;0.55;;;;;;;7.79;69.44;96427.94;10020328;29;20498;-75
2021/03/11 22:47:47;;;;;;;3.05;0.70;;;;;;;7.77;69.39;96418.75;9994137;29;20514;-75
2021/03/11 22:53:07;;;;;;;2.83;0.50;;;;;;;7.82;68.86;96426.00;10007571;29;20046;-75
2021/03/11 22:58:27;;;;;;;2.22;0.57;;;;;;;7.86;68.43;96429.00;10007230;29;20049;-75
2021/03/11 23:03:47;;;;;;;2.50;0.40;;;;;;;7.88;67.91;96431.88;9994165;29;20398;-75
2021/03/11 23:09:18;;;;;;;1.35;0.38;;;;;;;7.91;68.15;96422.31;10007170;29;20058;-75
2021/03/11 23:14:38;;;;;;;1.50;0.40;;;;;;;7.93;67.69;96411.34;9993717;29;20049;-75
2021/03/11 23:19:58;;;;;;;1.75;0.40;;;;;;;7.88;66.56;96402.03;10006968;29;20112;-75
2021/03/11 23:25:18;;;;;;;1.83;0.40;;;;;;;7.89;66.66;96408.31;10006792;29;20046;-75
2021/03/11 23:30:44;;;;;;;1.48;0.20;;;;;;;7.88;66.37;96413.16;10006742;29;20396;-74
2021/03/11 23:36:05;;;;;;;1.05;0.30;;;;;;;7.88;65.52;96402.03;9993488;29;20486;-75
2021/03/11 23:41:24;;;;;;;1.58;0.43;;;;;;;7.88;65.69;96424.28;9993568;29;20050;-75
2021/03/11 23:46:44;;;;;;;1.30;0.32;;;;;;;7.85;66.29;96431.06;9993828;29;20050;-76
2021/03/11 23:52:04;;;;;;;1.80;0.40;;;;;;;7.80;67.22;96432.16;9993400;29;20050;-75
2021/03/11 23:57:24;;;;;;;1.65;0.40;;;;;;;7.71;67.84;96444.84;10007909;29;20110;-75
